createdAt,value
2018-12-01T00:01:19.400Z,97895.37
2018-12-01T00:03:49.302Z,97892.80
2018-12-01T00:06:19.321Z,97893.64
2018-12-01T00:08:49.111Z,97897.91
2018-12-01T00:11:19.021Z,97887.19
2018-12-01T00:13:48.884Z,97888.91
2018-12-01T00:16:18.718Z,97887.22
2018-12-01T00:18:48.685Z,97882.95
2018-12-01T00:21:19.092Z,97894.20
2018-12-01T00:23:49.242Z,97887.45
2018-12-01T00:26:18.922Z,97882.89
2018-12-01T00:28:48.798Z,97894.95
2018-12-01T00:31:18.631Z,97897.88
2018-12-01T00:33:48.528Z,97902.95
2018-12-01T00:36:18.489Z,97906.88
2018-12-01T00:38:48.410Z,97903.44
2018-12-01T00:41:18.255Z,97863.92
2018-12-01T00:43:48.172Z,97901.31
2018-12-01T00:46:18.320Z,97895.25
2018-12-01T00:48:48.249Z,97894.38
2018-12-01T00:51:18.268Z,97902.87
2018-12-01T00:53:48.082Z,97899.02
2018-12-01T00:56:17.979Z,97902.00
2018-12-01T00:58:47.868Z,97900.39
2018-12-01T01:01:17.784Z,97899.08
2018-12-01T01:03:47.649Z,97894.75
2018-12-01T01:06:18.679Z,97903.73
2018-12-01T01:08:48.566Z,97907.55
2018-12-01T01:11:18.473Z,97895.52
2018-12-01T01:13:48.409Z,97890.86
2018-12-01T01:16:18.344Z,97887.78
2018-12-01T01:18:48.228Z,97889.04
2018-12-01T01:21:18.060Z,97878.25
2018-12-01T01:23:47.879Z,97869.75
2018-12-01T01:26:17.747Z,97871.66
2018-12-01T01:28:47.651Z,97870.38
2018-12-01T01:31:17.440Z,97872.97
2018-12-01T01:33:47.277Z,97876.85
2018-12-01T01:36:17.157Z,97873.84
2018-12-01T01:38:47.031Z,97869.09
2018-12-01T01:41:16.901Z,97868.55
2018-12-01T01:43:46.860Z,97859.48
2018-12-01T01:46:16.784Z,97860.79
2018-12-01T01:48:46.647Z,97856.12
2018-12-01T01:51:16.512Z,97851.92
2018-12-01T01:53:46.320Z,97851.83
2018-12-01T01:56:16.192Z,97857.92
2018-12-01T01:58:46.092Z,97851.11
2018-12-01T02:01:15.902Z,97842.09
2018-12-01T02:03:45.800Z,97838.23
2018-12-01T02:06:15.696Z,97838.21
2018-12-01T02:08:45.548Z,97827.97
2018-12-01T02:11:15.300Z,97825.40
2018-12-01T02:13:45.204Z,97823.25
2018-12-01T02:16:15.088Z,97816.91
2018-12-01T02:18:44.976Z,97821.16
2018-12-01T02:21:14.848Z,97810.34
2018-12-01T02:23:44.685Z,97817.25
2018-12-01T02:26:14.508Z,97809.12
2018-12-01T02:28:44.400Z,97803.17
2018-12-01T02:31:14.238Z,97803.56
2018-12-01T02:33:44.140Z,97806.97
2018-12-01T02:36:14.109Z,97805.69
2018-12-01T02:38:44.003Z,97809.98
2018-12-01T02:41:13.825Z,97807.03
2018-12-01T02:43:43.795Z,97809.96
2018-12-01T02:46:24.417Z,97811.60
2018-12-01T02:48:54.326Z,97810.34
2018-12-01T02:51:24.181Z,97809.03
2018-12-01T02:53:53.997Z,97802.64
2018-12-01T02:56:23.909Z,97811.19
2018-12-01T02:58:53.703Z,97815.97
2018-12-01T03:01:23.539Z,97814.62
2018-12-01T03:03:53.435Z,97813.73
2018-12-01T03:06:23.336Z,97817.16
2018-12-01T03:08:53.388Z,97816.73
2018-12-01T03:11:23.137Z,97820.23
2018-12-01T03:13:52.932Z,97817.25
2018-12-01T03:16:22.752Z,97810.73
2018-12-01T03:18:52.651Z,97817.61
2018-12-01T03:21:22.432Z,97809.98
2018-12-01T03:23:52.608Z,97806.16
2018-12-01T03:26:22.440Z,97811.77
2018-12-01T03:28:53.508Z,97813.56
2018-12-01T03:31:23.281Z,97814.45
2018-12-01T03:33:53.401Z,97811.41
2018-12-01T03:36:23.209Z,97808.42
2018-12-01T03:38:53.256Z,97813.06
2018-12-01T03:41:23.017Z,97818.16
2018-12-01T03:43:52.805Z,97815.16
2018-12-01T03:46:22.651Z,97698.98
2018-12-01T03:48:52.488Z,97819.13
2018-12-01T03:51:22.280Z,97823.00
2018-12-01T03:53:52.056Z,97829.45
2018-12-01T03:56:21.940Z,97822.72
2018-12-01T03:58:51.740Z,97818.45
2018-12-01T04:01:21.480Z,97813.73
2018-12-01T04:03:51.368Z,97809.91
2018-12-01T04:06:21.190Z,97811.19
2018-12-01T04:08:51.210Z,97814.96
2018-12-01T04:11:21.357Z,97817.89
2018-12-01T04:13:51.704Z,97831.91
2018-12-01T04:16:21.539Z,97827.16
2018-12-01T04:18:51.340Z,97826.27
2018-12-01T04:21:21.070Z,97826.44
2018-12-01T04:23:51.307Z,97831.27
2018-12-01T04:26:22.286Z,97827.39
2018-12-01T04:28:52.618Z,97825.31
2018-12-01T04:31:22.219Z,97833.97
2018-12-01T04:33:51.919Z,97831.83
2018-12-01T04:36:22.040Z,97830.91
2018-12-01T04:38:51.908Z,97824.88
2018-12-01T04:41:21.688Z,97824.81
2018-12-01T04:43:51.531Z,97830.38
2018-12-01T04:46:21.413Z,97829.06
2018-12-01T04:48:51.232Z,97832.02
2018-12-01T04:51:21.906Z,97829.16
2018-12-01T04:53:51.634Z,97831.39
2018-12-01T04:56:21.598Z,97831.27
2018-12-01T04:58:51.683Z,97836.17
2018-12-01T05:01:21.807Z,97796.41
2018-12-01T05:03:51.771Z,97835.28
2018-12-01T05:06:21.849Z,97830.43
2018-12-01T05:08:52.399Z,97833.31
2018-12-01T05:11:22.617Z,97837.03
2018-12-01T05:13:52.416Z,97837.43
2018-12-01T05:16:22.687Z,97839.53
2018-12-01T05:18:52.510Z,97843.27
2018-12-01T05:21:22.176Z,97843.72
2018-12-01T05:23:51.908Z,97846.73
2018-12-01T05:26:21.737Z,97847.88
2018-12-01T05:28:52.443Z,97853.02
2018-12-01T05:31:23.066Z,97844.39
2018-12-01T05:33:52.711Z,97840.89
2018-12-01T05:36:23.024Z,97834.89
2018-12-01T05:38:52.720Z,97838.72
2018-12-01T05:41:23.737Z,97851.13
2018-12-01T05:43:53.880Z,97847.71
2018-12-01T05:46:23.867Z,97848.11
2018-12-01T05:48:53.643Z,97853.27
2018-12-01T05:51:24.670Z,97857.09
2018-12-01T05:53:55.440Z,97849.42
2018-12-01T05:56:25.259Z,97859.70
2018-12-01T05:58:55.633Z,97860.56
2018-12-01T06:01:25.333Z,97855.45
2018-12-01T06:03:55.434Z,97859.78
2018-12-01T06:06:25.151Z,97623.31
2018-12-01T06:08:54.946Z,97867.48
2018-12-01T06:11:25.261Z,97867.82
2018-12-01T06:13:54.992Z,97868.77
2018-12-01T06:16:24.796Z,97873.91
2018-12-01T06:18:55.421Z,97872.95
2018-12-01T06:21:25.204Z,97869.08
2018-12-01T06:23:55.004Z,97873.34
2018-12-01T06:26:24.951Z,97880.64
2018-12-01T06:28:54.731Z,97882.37
2018-12-01T06:31:24.418Z,97882.28
2018-12-01T06:33:54.196Z,97881.09
2018-12-01T06:36:24.002Z,97878.96
2018-12-01T06:38:54.843Z,97881.95
2018-12-01T06:41:24.643Z,97885.36
2018-12-01T06:43:55.343Z,97890.97
2018-12-01T06:46:25.172Z,97899.97
2018-12-01T06:48:55.001Z,97894.91
2018-12-01T06:51:24.752Z,97900.08
2018-12-01T06:53:54.493Z,97907.82
2018-12-01T06:56:24.701Z,97908.33
2018-12-01T06:58:54.530Z,97904.08
2018-12-01T07:01:24.595Z,97910.20
2018-12-01T07:03:54.293Z,97905.09
2018-12-01T07:06:24.462Z,97907.66
2018-12-01T07:08:54.680Z,97913.33
2018-12-01T07:11:24.364Z,97907.80
2018-12-01T07:13:54.134Z,97915.56
2018-12-01T07:16:24.321Z,97910.95
2018-12-01T07:19:19.157Z,97916.99
2018-12-01T07:21:49.552Z,97917.92
2018-12-01T07:24:19.304Z,97915.48
2018-12-01T07:26:49.162Z,97924.67
2018-12-01T07:29:19.026Z,97923.94
2018-12-01T07:31:48.987Z,97930.45
2018-12-01T07:34:18.819Z,97926.76
2018-12-01T07:36:48.906Z,97930.66
2018-12-01T07:39:19.436Z,97931.53
2018-12-01T07:41:49.362Z,97948.34
2018-12-01T07:44:19.444Z,97930.48
2018-12-01T07:46:49.528Z,97921.08
2018-12-01T07:49:19.368Z,97921.45
2018-12-01T07:51:50.328Z,97927.59
2018-12-01T07:54:20.123Z,97927.62
2018-12-01T07:56:49.869Z,97928.93
2018-12-01T07:59:19.828Z,97938.14
2018-12-01T08:01:50.304Z,97937.00
2018-12-01T08:04:20.696Z,97926.01
2018-12-01T08:06:50.509Z,97930.07
2018-12-01T08:09:20.853Z,97926.81
2018-12-01T08:11:51.057Z,97937.32
2018-12-01T08:14:21.281Z,97934.11
2018-12-01T08:16:51.289Z,97935.97
2018-12-01T08:19:21.474Z,97940.81
2018-12-01T08:21:51.094Z,97950.87
2018-12-01T08:24:21.366Z,97951.55
2018-12-01T08:26:51.156Z,97594.08
2018-12-01T08:29:21.179Z,97951.86
2018-12-01T08:31:50.898Z,97951.58
2018-12-01T08:34:20.647Z,97950.21
2018-12-01T08:36:50.392Z,97945.38
2018-12-01T08:39:20.107Z,97950.47
2018-12-01T08:41:50.875Z,97954.28
2018-12-01T08:44:20.647Z,97962.88
2018-12-01T08:46:51.516Z,97963.67
2018-12-01T08:49:22.522Z,97957.22
2018-12-01T08:51:52.251Z,97894.70
2018-12-01T08:54:22.522Z,97967.55
2018-12-01T08:56:52.817Z,97969.77
2018-12-01T08:59:23.452Z,97970.20
2018-12-01T09:01:53.738Z,97961.27
2018-12-01T09:04:23.544Z,97970.50
2018-12-01T09:06:53.913Z,97970.27
2018-12-01T09:09:23.690Z,97971.59
2018-12-01T09:11:53.585Z,97971.45
2018-12-01T09:14:23.388Z,97972.12
2018-12-01T09:16:53.344Z,97969.73
2018-12-01T09:19:23.424Z,97975.33
2018-12-01T09:21:54.065Z,97969.23
2018-12-01T09:24:24.193Z,97972.84
2018-12-01T09:26:54.078Z,97971.73
2018-12-01T09:29:24.410Z,97965.27
2018-12-01T09:31:54.402Z,97968.34
2018-12-01T09:34:24.532Z,97962.41
2018-12-01T09:36:54.323Z,97969.37
2018-12-01T09:39:24.472Z,97961.61
2018-12-01T09:41:54.640Z,97960.46
2018-12-01T09:44:24.737Z,97961.48
2018-12-01T09:46:54.571Z,97961.67
2018-12-01T09:49:24.689Z,97961.88
2018-12-01T09:51:54.728Z,97967.16
2018-12-01T09:54:24.940Z,97953.74
2018-12-01T09:56:54.835Z,97954.60
2018-12-01T09:59:25.069Z,97953.38
2018-12-01T10:01:55.611Z,97952.57
2018-12-01T10:04:25.486Z,97948.69
2018-12-01T10:06:55.728Z,97949.12
2018-12-01T10:09:25.941Z,97948.21
2018-12-01T10:11:55.752Z,97944.33
2018-12-01T10:14:25.729Z,97933.44
2018-12-01T10:16:55.668Z,97842.50
2018-12-01T10:19:25.833Z,97928.95
2018-12-01T10:21:55.778Z,97933.76
2018-12-01T10:24:25.898Z,97932.62
2018-12-01T10:26:56.034Z,97928.80
2018-12-01T10:29:25.923Z,97933.97
2018-12-01T10:31:55.791Z,97933.91
2018-12-01T10:34:25.700Z,97930.90
2018-12-01T10:36:55.843Z,97926.60
2018-12-01T10:39:26.501Z,97921.91
2018-12-01T10:41:56.291Z,97916.36
2018-12-01T10:44:26.591Z,97908.79
2018-12-01T10:46:57.120Z,97913.09
2018-12-01T10:49:26.963Z,97913.53
2018-12-01T10:51:57.728Z,97911.07
2018-12-01T10:54:29.004Z,97921.47
2018-12-01T10:56:58.915Z,97917.23
2018-12-01T10:59:29.213Z,97912.87
2018-12-01T11:02:04.232Z,97915.03
2018-12-01T11:04:40.250Z,97910.32
2018-12-01T11:07:10.169Z,97912.48
2018-12-01T11:09:40.310Z,97906.00
2018-12-01T11:12:10.440Z,97903.88
2018-12-01T11:14:40.694Z,97898.17
2018-12-01T11:17:10.617Z,97901.22
2018-12-01T11:19:40.499Z,97911.15
2018-12-01T11:22:10.357Z,97908.56
2018-12-01T11:24:40.277Z,97908.12
2018-12-01T11:27:10.077Z,97909.03
2018-12-01T11:29:39.994Z,97911.66
2018-12-01T11:32:09.911Z,97918.13
2018-12-01T11:34:40.056Z,97916.44
2018-12-01T11:37:09.968Z,97907.40
2018-12-01T11:39:40.924Z,97914.37
2018-12-01T11:42:10.833Z,97920.75
2018-12-01T11:44:41.129Z,97919.02
2018-12-01T11:47:11.386Z,97915.20
2018-12-01T11:49:42.026Z,97908.76
2018-12-01T11:52:13.080Z,97908.34
2018-12-01T11:54:43.788Z,97915.72
2018-12-01T11:57:13.670Z,97909.23
2018-12-01T11:59:43.713Z,97916.17
2018-12-01T12:02:13.804Z,97913.15
2018-12-01T12:04:44.810Z,97905.78
2018-12-01T12:07:25.497Z,97902.30
2018-12-01T12:09:55.428Z,97900.12
2018-12-01T12:12:29.805Z,97898.34
2018-12-01T12:14:59.760Z,97900.09
2018-12-01T12:17:30.054Z,97906.53
2018-12-01T12:19:59.929Z,97910.79
2018-12-01T12:22:30.646Z,97911.62
2018-12-01T12:25:01.030Z,97909.86
2018-12-01T12:27:31.766Z,97908.56
2018-12-01T12:30:02.080Z,97905.54
2018-12-01T12:32:32.347Z,97912.87
2018-12-01T12:35:02.491Z,97906.36
2018-12-01T12:37:33.438Z,97901.54
2018-12-01T12:40:03.271Z,97898.91
2018-12-01T12:42:34.707Z,97904.91
2018-12-01T12:45:05.009Z,97905.73
2018-12-01T12:47:36.300Z,97898.00
2018-12-01T12:50:08.512Z,97904.48
2018-12-01T12:52:38.424Z,97907.11
2018-12-01T12:55:10.850Z,97910.17
2018-12-01T12:57:41.048Z,97911.97
2018-12-01T13:00:16.038Z,97908.95
2018-12-01T13:02:47.783Z,97825.44
2018-12-01T13:05:24.180Z,97913.31
2018-12-01T13:07:54.968Z,97920.68
2018-12-01T13:10:26.066Z,97915.94
2018-12-01T13:12:56.916Z,97918.55
2018-12-01T13:15:27.674Z,97916.40
2018-12-01T13:17:57.822Z,97918.98
2018-12-01T13:20:27.972Z,97916.80
2018-12-01T13:22:59.941Z,97912.05
2018-12-01T13:25:30.372Z,97914.64
2018-12-01T13:28:07.229Z,97911.58
2018-12-01T13:30:42.520Z,97920.21
2018-12-01T13:33:12.862Z,97911.15
2018-12-01T13:35:42.971Z,97913.27
2018-12-01T13:38:12.843Z,97904.64
2018-12-01T13:40:42.996Z,97909.81
2018-12-01T13:43:13.058Z,97917.12
2018-12-01T13:45:43.572Z,97910.20
2018-12-01T13:48:13.421Z,97908.88
2018-12-01T13:50:43.297Z,97921.34
2018-12-01T13:53:14.187Z,97915.69
2018-12-01T13:55:44.162Z,97913.88
2018-12-01T13:58:14.809Z,97913.44
2018-12-01T14:00:45.807Z,97914.69
2018-12-01T14:03:15.967Z,97918.52
2018-12-01T14:05:45.982Z,97915.48
2018-12-01T14:08:15.872Z,97919.75
2018-12-01T14:10:47.861Z,97926.16
2018-12-01T14:13:17.792Z,97929.13
2018-12-01T14:15:48.408Z,97483.34
2018-12-01T14:18:18.299Z,97940.65
2018-12-01T14:20:48.132Z,97936.70
2018-12-01T14:23:18.343Z,97944.83
2018-12-01T14:25:49.137Z,97945.20
2018-12-01T14:28:20.052Z,97949.44
2018-12-01T14:30:49.948Z,97946.83
2018-12-01T14:33:20.310Z,97954.90
2018-12-01T14:35:50.551Z,97964.34
2018-12-01T14:38:20.652Z,97954.80
2018-12-01T14:40:51.066Z,97959.03
2018-12-01T14:43:21.654Z,97959.83
2018-12-01T14:45:51.928Z,97955.88
2018-12-01T14:48:21.765Z,97961.88
2018-12-01T14:50:52.077Z,97961.81
2018-12-01T14:53:21.942Z,97961.36
2018-12-01T14:55:52.137Z,97956.58
2018-12-01T14:58:22.102Z,97963.02
2018-12-01T15:00:52.853Z,97961.23
2018-12-01T15:03:22.808Z,97954.77
2018-12-01T15:05:52.957Z,97955.56
2018-12-01T15:08:22.874Z,97963.78
2018-12-01T15:10:52.788Z,97976.19
2018-12-01T15:13:23.832Z,97978.72
2018-12-01T15:15:53.613Z,97981.27
2018-12-01T15:18:23.498Z,97990.29
2018-12-01T15:20:53.599Z,97989.37
2018-12-01T15:23:23.912Z,97986.89
2018-12-01T15:25:53.932Z,97993.64
2018-12-01T15:28:23.856Z,97991.83
2018-12-01T15:30:54.518Z,98002.06
2018-12-01T15:33:24.794Z,98006.72
2018-12-01T15:35:54.741Z,98003.25
2018-12-01T15:38:24.806Z,98001.45
2018-12-01T15:40:55.015Z,98008.73
2018-12-01T15:43:25.713Z,98009.08
2018-12-01T15:45:55.791Z,98008.57
2018-12-01T15:48:25.719Z,98024.13
2018-12-01T15:50:56.436Z,98025.83
2018-12-01T15:53:26.815Z,98032.23
2018-12-01T15:55:57.168Z,98038.25
2018-12-01T15:58:27.496Z,98047.75
2018-12-01T16:00:57.927Z,98046.91
2018-12-01T16:03:27.902Z,98045.23
2018-12-01T16:05:57.815Z,98043.94
2018-12-01T16:08:29.719Z,98050.80
2018-12-01T16:10:59.587Z,98046.89
2018-12-01T16:13:29.521Z,98048.11
2018-12-01T16:16:06.459Z,98044.14
2018-12-01T16:18:36.437Z,98050.05
2018-12-01T16:21:08.590Z,98054.31
2018-12-01T16:23:38.506Z,98044.77
2018-12-01T16:26:08.707Z,98050.33
2018-12-01T16:28:39.153Z,98051.98
2018-12-01T16:31:09.276Z,98058.40
2018-12-01T16:33:39.646Z,98055.75
2018-12-01T16:36:10.090Z,98052.27
2018-12-01T16:38:39.926Z,98055.27
2018-12-01T16:41:28.152Z,98051.27
2018-12-01T16:43:57.952Z,98068.06
2018-12-01T16:46:29.618Z,98061.62
2018-12-01T16:49:00.344Z,98068.89
2018-12-01T16:51:31.397Z,98073.97
2018-12-01T16:54:01.617Z,98068.79
2018-12-01T16:56:31.616Z,98070.00
2018-12-01T16:59:01.562Z,98068.27
2018-12-01T17:01:32.054Z,98066.94
2018-12-01T17:04:02.364Z,98068.59
2018-12-01T17:06:32.209Z,98074.99
2018-12-01T17:09:02.363Z,98070.70
2018-12-01T17:11:33.001Z,98076.70
2018-12-01T17:14:02.806Z,98077.57
2018-12-01T17:16:32.795Z,98078.09
2018-12-01T17:19:02.791Z,98079.83
2018-12-01T17:21:32.919Z,98072.94
2018-12-01T17:24:03.485Z,98066.52
2018-12-01T17:26:33.386Z,98067.41
2018-12-01T17:29:03.281Z,97840.83
2018-12-01T17:31:33.545Z,98074.39
2018-12-01T17:34:03.476Z,98068.48
2018-12-01T17:36:33.418Z,98056.11
2018-12-01T17:39:03.561Z,98062.67
2018-12-01T17:41:33.441Z,98060.55
2018-12-01T17:44:06.583Z,98059.30
2018-12-01T17:46:36.819Z,98062.31
2018-12-01T17:49:07.612Z,98062.73
2018-12-01T17:51:37.466Z,98058.42
2018-12-01T17:54:12.860Z,98055.84
2018-12-01T17:56:43.744Z,98061.00
2018-12-01T17:59:13.800Z,98061.83
2018-12-01T18:01:43.680Z,98063.42
2018-12-01T18:04:14.556Z,98066.33
2018-12-01T18:06:44.840Z,98063.21
2018-12-01T18:09:15.736Z,98069.19
2018-12-01T18:11:45.979Z,98068.65
2018-12-01T18:14:16.208Z,98072.86
2018-12-01T18:16:46.359Z,98070.59
2018-12-01T18:19:16.362Z,98073.06
2018-12-01T18:21:46.311Z,98068.20
2018-12-01T18:24:16.202Z,98069.88
2018-12-01T18:26:46.134Z,98065.02
2018-12-01T18:29:17.580Z,98066.67
2018-12-01T18:31:48.231Z,98064.07
2018-12-01T18:34:18.080Z,98064.91
2018-12-01T18:36:49.226Z,98061.91
2018-12-01T18:39:20.028Z,98066.20
2018-12-01T18:41:49.856Z,98066.63
2018-12-01T18:44:20.324Z,98066.60
2018-12-01T18:46:51.207Z,98061.32
2018-12-01T18:49:22.464Z,98074.20
2018-12-01T18:51:53.147Z,98071.54
2018-12-01T18:54:24.279Z,98069.28
2018-12-01T18:56:54.308Z,98076.53
2018-12-01T18:59:24.537Z,98077.73
2018-12-01T19:01:55.087Z,98082.08
2018-12-01T19:04:25.062Z,98082.50
2018-12-01T19:06:55.125Z,98081.72
2018-12-01T19:09:25.289Z,98073.14
2018-12-01T19:11:55.152Z,98068.72
2018-12-01T19:14:25.080Z,98063.56
2018-12-01T19:16:55.620Z,98059.52
2018-12-01T19:19:26.077Z,98060.88
2018-12-01T19:21:56.321Z,98056.00
2018-12-01T19:24:26.261Z,97919.97
2018-12-01T19:26:56.241Z,98039.14
2018-12-01T19:29:26.143Z,98041.12
2018-12-01T19:31:56.806Z,98045.60
2018-12-01T19:34:28.139Z,98046.04
2018-12-01T19:36:58.200Z,98042.59
2018-12-01T19:39:28.162Z,98035.06
2018-12-01T19:41:57.941Z,98037.94
2018-12-01T19:44:27.807Z,98041.33
2018-12-01T19:46:58.247Z,98034.77
2018-12-01T19:49:28.144Z,98034.33
2018-12-01T19:51:58.316Z,98031.34
2018-12-01T19:54:28.447Z,98035.70
2018-12-01T19:56:58.337Z,98039.12
2018-12-01T19:59:28.405Z,98036.26
2018-12-01T20:01:58.287Z,98034.33
2018-12-01T20:04:28.163Z,98031.92
2018-12-01T20:06:59.153Z,98033.45
2018-12-01T20:09:29.397Z,98031.61
2018-12-01T20:11:59.719Z,98032.81
2018-12-01T20:14:29.796Z,98035.55
2018-12-01T20:16:59.768Z,98042.48
2018-12-01T20:19:29.920Z,98041.95
2018-12-01T20:21:59.715Z,98045.27
2018-12-01T20:24:29.968Z,98039.56
2018-12-01T20:27:00.550Z,98032.55
2018-12-01T20:29:30.832Z,98032.86
2018-12-01T20:32:01.219Z,98027.94
2018-12-01T20:34:31.730Z,98020.53
2018-12-01T20:37:04.706Z,98016.62
2018-12-01T20:39:37.403Z,98014.85
2018-12-01T20:42:07.338Z,98017.81
2018-12-01T20:44:37.424Z,98011.69
2018-12-01T20:47:07.409Z,98010.35
2018-12-01T20:49:37.601Z,98017.98
2018-12-01T20:52:08.065Z,98015.77
2018-12-01T20:54:42.820Z,98013.50
2018-12-01T20:57:29.147Z,98015.21
2018-12-01T20:59:59.202Z,98010.81
2018-12-01T21:02:29.268Z,98007.68
2018-12-01T21:04:59.425Z,98016.20
2018-12-01T21:07:29.359Z,98004.96
2018-12-01T21:09:59.241Z,98008.38
2018-12-01T21:12:29.122Z,97998.90
2018-12-01T21:14:59.047Z,97998.03
2018-12-01T21:17:28.911Z,97999.77
2018-12-01T21:19:58.813Z,97998.87
2018-12-01T21:22:28.794Z,97998.75
2018-12-01T21:24:58.586Z,97998.72
2018-12-01T21:27:28.463Z,97993.22
2018-12-01T21:29:58.313Z,98000.06
2018-12-01T21:32:28.180Z,97994.06
2018-12-01T21:34:58.062Z,97989.75
2018-12-01T21:37:27.999Z,97990.50
2018-12-01T21:39:57.835Z,97984.16
2018-12-01T21:42:27.791Z,97990.95
2018-12-01T21:44:57.695Z,97992.23
2018-12-01T21:47:27.478Z,97989.09
2018-12-01T21:49:57.253Z,97993.31
2018-12-01T21:52:27.138Z,97985.98
2018-12-01T21:54:57.456Z,97984.19
2018-12-01T21:57:28.100Z,97982.04
2018-12-01T21:59:57.808Z,97982.43
2018-12-01T22:02:28.149Z,97988.44
2018-12-01T22:04:58.827Z,97982.37
2018-12-01T22:07:29.022Z,97994.83
2018-12-01T22:09:58.773Z,97993.93
2018-12-01T22:12:28.549Z,97993.58
2018-12-01T22:14:59.526Z,97996.50
2018-12-01T22:17:29.341Z,97995.58
2018-12-01T22:19:59.204Z,97991.72
2018-12-01T22:22:29.030Z,97993.77
2018-12-01T22:24:59.091Z,97986.88
2018-12-01T22:27:28.888Z,97986.75
2018-12-01T22:29:59.395Z,97990.70
2018-12-01T22:32:30.820Z,97986.75
2018-12-01T22:35:01.072Z,97984.13
2018-12-01T22:37:30.989Z,97982.29
2018-12-01T22:40:01.304Z,97985.63
2018-12-01T22:42:33.959Z,97980.40
2018-12-01T22:45:03.753Z,97985.53
2018-12-01T22:47:34.611Z,97983.70
2018-12-01T22:50:06.377Z,97981.52
2018-12-01T22:52:36.205Z,97975.08
2018-12-01T22:55:08.127Z,97975.52
2018-12-01T22:57:38.258Z,97973.05
2018-12-01T23:00:20.468Z,97974.34
2018-12-01T23:02:51.617Z,97967.43
2018-12-01T23:05:22.161Z,97971.25
2018-12-01T23:07:52.900Z,97967.84
2018-12-01T23:10:23.502Z,97962.78
2018-12-01T23:12:53.798Z,97959.28
2018-12-01T23:15:23.879Z,97957.99
2018-12-01T23:17:54.740Z,97962.68
2018-12-01T23:20:26.312Z,97954.14
2018-12-01T23:22:57.069Z,97959.66
2018-12-01T23:25:26.931Z,97959.41
2018-12-01T23:27:56.781Z,97953.14
2018-12-01T23:30:28.316Z,97958.83
2018-12-01T23:33:00.348Z,97947.53
2018-12-01T23:35:31.528Z,97938.16
2018-12-01T23:38:01.451Z,97931.80
2018-12-01T23:40:33.253Z,97922.45
2018-12-01T23:43:03.410Z,97918.63
2018-12-01T23:45:33.962Z,97920.02
2018-12-01T23:48:04.668Z,97923.41
2018-12-01T23:50:33.725Z,97920.04
2018-12-01T23:53:06.325Z,97912.30
2018-12-01T23:55:36.141Z,97920.07
2018-12-01T23:58:06.156Z,97910.72
